Poplar Bluff, MO

8:28 AM CDT on July 25, 2017 (GMT -0500)
Bluff Estates | | Change Station
Active Advisory: Special Statement

Elev 417 ft 36.77 °N, 90.43 °W | Updated 15 seconds ago

Mostly Cloudy
Mostly Cloudy
79.9 °F
Feels Like 85 °F
N
0.0
Wind Variable Wind from SSW
Gusts 0.0 mph

Today
High -- | Low -- °F
--% Chance of Precip.
Yesterday
High -- | Low -- °F
Precip. -- in
Pressure 30.06 in
Visibility 5.0 miles
Clouds Scattered Clouds 500 ft
Overcast 7000 ft
Heat Index 85 °F
Dew Point 77 °F
Humidity 90%
Rainfall 0.00 in
Snow Depth Not available.
6:02 AM 8:13 PM
Waxing Crescent, 6% visible
SPECI KPOF 251307Z AUTO 13004KT 5SM BR SCT005 OVC070 27/26 A3006 RMK AO2 T02670256
Pressure 30.06 in
Visibility 5.0 miles
Clouds Scattered Clouds 500 ft
Overcast 7000 ft
Heat Index 85 °F
Dew Point 77 °F
Humidity 90%
Rainfall 0.00 in
Snow Depth Not available.
6:02 AM 8:13 PM
Waxing Crescent, 6% visible
SPECI KPOF 251307Z AUTO 13004KT 5SM BR SCT005 OVC070 27/26 A3006 RMK AO2 T02670256

Get Your Daily Forecast Email!

Thanks for signing up!

Be on the lookout for a verification email in your inbox.

You'll start receiving severe weather alerts in your inbox..

×

10-Day Weather Forecast

Almanac

Astronomy

Jul. 25, 2017 Rise Set
Actual Time
Civil Twilight
Nautical Twilight
Astronomical Twilight
Moon
Length of Visible Light
Length of Day
Tomorrow will be .
, % of the Moon is Illuminated

Today's Extremes

State Highs State Lows

Community

WunderPhotos

Category 6

Welcome to Category 6. This is the collective home for Weather Underground's featured writeups by Dr. Jeff Masters (right), Bob Henson (left), Chris Burt, and other regular contributors.

Nearby

Air Quality

  Air Quality AQ Index Pollutant
Not available.

Snow Depth

Station Depth Elevation

Earthquake Activity

City Distance Mag. Time & Date
Minimum magnitude displayed is 2.5.

Coastal Water Temperatures

Place Temperature

Stations

Nearby Weather Stations

Station Location Temp. Windchill Dew Point Humidity Wind Precip. Elev Updated Type
                   

Watches & Warnings

Special Statement
Issued: 3:40 AM CDT Jul. 25, 2017 – National Weather Service

... Hot and humid conditions through Wednesday...

Peak afternoon heat index values will range from 100 to 105 today,
and from 102 to 107 degrees Wednesday.

These conditions will increase the likelihood of heat related
illness if precautions are not taken when working or participating
in activities outside. A heat advisory may eventually be required.



340 am CDT Tue Jul 25 2017

... Hot and humid conditions through Wednesday...

Peak afternoon heat index values will range from 100 to 105 today,
and from 102 to 107 degrees Wednesday.

These conditions will increase the likelihood of heat related
illness if precautions are not taken when working or participating
in activities outside. A heat advisory may eventually be required.